Time;durP1;ratioP1;P1;durP2;ratioP2;P2;SDS_P1;SDS_P2;PMS_P1;PMS_P2;Temp;Humidity;BMP_temperature;BMP_pressure;BME280_temperature;BME280_humidity;BME280_pressure;Samples;Min_cycle;Max_cycle;Signal;HPM_P1;HPM_P2
2022/10/21 00:01:02;;;;;;;14.77;9.60;;;15.50;99.90;;;;;;5033877;28;20657;-66
2022/10/21 00:03:29;;;;;;;16.57;9.97;;;15.40;99.90;;;;;;5034099;28;20234;-65
2022/10/21 00:05:56;;;;;;;14.33;9.40;;;15.40;99.90;;;;;;5034171;28;20210;-65
2022/10/21 00:08:23;;;;;;;16.87;10.07;;;15.50;99.90;;;;;;5033529;28;20314;-65
2022/10/21 00:10:52;;;;;;;14.00;8.80;;;15.60;99.90;;;;;;5034226;28;20596;-66
2022/10/21 00:13:18;;;;;;;14.77;9.30;;;15.50;99.90;;;;;;5033987;28;20230;-66
2022/10/21 00:15:57;;;;;;;15.87;9.23;;;15.50;99.90;;;;;;5034029;28;20210;-66
2022/10/21 00:18:24;;;;;;;14.17;9.17;;;15.40;99.90;;;;;;5033224;28;20202;-66
2022/10/21 00:20:51;;;;;;;16.90;9.90;;;15.40;99.90;;;;;;5034116;28;20210;-65
2022/10/21 00:23:18;;;;;;;19.77;9.85;;;15.50;99.90;;;;;;5033985;28;20639;-66
2022/10/21 00:25:44;;;;;;;13.27;9.15;;;15.50;99.90;;;;;;5034049;28;20206;-66
2022/10/21 00:28:11;;;;;;;12.77;9.03;;;15.50;99.90;;;;;;5033160;28;20214;-66
2022/10/21 00:30:42;;;;;;;16.97;9.40;;;15.50;99.90;;;;;;5034013;28;20210;-66
2022/10/21 00:33:11;;;;;;;17.53;9.03;;;15.40;99.90;;;;;;5033541;28;20230;-66
2022/10/21 00:35:38;;;;;;;15.27;9.33;;;15.40;99.90;;;;;;5034020;28;20213;-66
2022/10/21 00:38:05;;;;;;;12.77;9.03;;;15.50;99.90;;;;;;5033216;28;20209;-65
2022/10/21 00:40:32;;;;;;;11.10;8.60;;;15.60;99.90;;;;;;5033854;28;20213;-66
2022/10/21 00:42:59;;;;;;;13.73;8.23;;;15.60;99.90;;;;;;5034216;28;20241;-66
2022/10/21 00:45:27;;;;;;;16.88;9.15;;;15.70;99.90;;;;;;5033993;28;20206;-65
2022/10/21 00:47:59;;;;;;;14.32;9.13;;;15.70;99.90;;;;;;5033507;28;20215;-65
2022/10/21 00:50:36;;;;;;;12.50;9.30;;;15.70;99.90;;;;;;5033914;28;20230;-65
2022/10/21 00:53:04;;;;;;;14.93;9.53;;;15.70;99.90;;;;;;5033667;28;20226;-65
2022/10/21 00:55:35;;;;;;;12.95;8.77;;;15.70;99.90;;;;;;5033498;28;20213;-66
2022/10/21 00:58:03;;;;;;;12.32;8.45;;;15.50;99.90;;;;;;5032462;28;20209;-66
2022/10/21 01:00:30;;;;;;;12.85;8.65;;;15.50;99.90;;;;;;5033347;28;20206;-65
2022/10/21 01:02:57;;;;;;;14.07;8.25;;;15.40;99.90;;;;;;5033269;28;20248;-65
2022/10/21 01:05:25;;;;;;;13.05;8.57;;;15.40;99.90;;;;;;5033287;28;20206;-65
2022/10/21 01:07:54;;;;;;;10.75;8.55;;;15.40;99.90;;;;;;5032557;28;20210;-65
2022/10/21 01:10:20;;;;;;;12.50;8.63;;;15.30;99.90;;;;;;5032360;28;20226;-65
2022/10/21 01:13:10;;;;;;;18.23;9.67;;;15.40;99.90;;;;;;5032290;28;20706;-68
2022/10/21 01:15:45;;;;;;;11.73;8.70;;;15.40;99.90;;;;;;5033027;28;20217;-66
2022/10/21 01:18:23;;;;;;;11.13;8.87;;;15.40;99.90;;;;;;5032274;28;20205;-66
2022/10/21 01:21:09;;;;;;;12.17;9.10;;;15.40;99.90;;;;;;5032850;28;20210;-65
2022/10/21 01:23:59;;;;;;;15.60;10.60;;;15.40;99.90;;;;;;5032867;28;20230;-65
2022/10/21 01:27:07;;;;;;;25.33;14.27;;;15.40;99.90;;;;;;5032047;28;20698;-66
2022/10/21 01:30:20;;;;;;;12.33;9.53;;;15.40;99.90;;;;;;4971522;28;20235;-66
2022/10/21 01:33:03;;;;;;;14.83;9.20;;;15.50;99.90;;;;;;5032744;28;20248;-65
2022/10/21 01:35:36;;;;;;;12.13;9.30;;;15.50;99.90;;;;;;5032540;28;20221;-66
2022/10/21 01:38:09;;;;;;;17.37;8.97;;;15.60;99.90;;;;;;5032232;28;20210;-65
2022/10/21 01:40:42;;;;;;;14.90;8.53;;;15.60;99.90;;;;;;5032959;28;20206;-66
2022/10/21 01:43:16;;;;;;;15.10;9.10;;;15.70;99.90;;;;;;5057596;22;20584;-61
2022/10/21 01:45:48;;;;;;;13.93;7.60;;;15.70;99.90;;;;;;5044651;28;20558;-58
2022/10/21 01:48:20;;;;;;;12.73;8.07;;;15.80;99.90;;;;;;5052613;28;20296;-60
2022/10/21 01:50:50;;;;;;;12.37;7.57;;;15.80;99.90;;;;;;5054394;28;20225;-60
2022/10/21 01:53:18;;;;;;;11.70;7.90;;;15.80;99.90;;;;;;5054234;28;20237;-59
2022/10/21 01:55:48;;;;;;;15.43;7.37;;;15.70;99.90;;;;;;5054223;28;20237;-58
2022/10/21 01:58:18;;;;;;;12.23;8.83;;;15.60;99.90;;;;;;5052600;28;20214;-58
2022/10/21 02:00:47;;;;;;;11.80;8.33;;;15.50;99.90;;;;;;5052392;28;20233;-58
2022/10/21 02:03:20;;;;;;;16.23;9.20;;;15.50;99.90;;;;;;5052288;28;20709;-58
2022/10/21 02:05:47;;;;;;;14.33;8.20;;;15.40;99.90;;;;;;5052795;28;20214;-58
2022/10/21 02:08:14;;;;;;;15.20;7.83;;;15.50;99.90;;;;;;5052194;28;20209;-59
2022/10/21 02:10:44;;;;;;;14.27;7.50;;;15.50;99.90;;;;;;5052503;28;20232;-59
2022/10/21 02:13:16;;;;;;;11.70;8.02;;;15.50;99.90;;;;;;5052615;28;20419;-59
2022/10/21 02:15:44;;;;;;;10.63;7.68;;;15.50;99.90;;;;;;5053120;28;20206;-58
2022/10/21 02:18:20;;;;;;;15.67;8.43;;;15.40;99.90;;;;;;5052843;28;20206;-59
2022/10/21 02:20:51;;;;;;;16.53;9.63;;;15.20;99.90;;;;;;5053641;28;20255;-58
2022/10/21 02:23:22;;;;;;;12.00;8.17;;;15.10;99.90;;;;;;5053145;28;20230;-59
2022/10/21 02:25:51;;;;;;;12.03;7.93;;;15.10;99.90;;;;;;5053147;28;20232;-59
2022/10/21 02:28:19;;;;;;;14.53;8.07;;;15.20;99.90;;;;;;5053418;28;20290;-59
2022/10/21 02:30:55;;;;;;;17.90;7.50;;;15.30;99.90;;;;;;5053813;28;20229;-59
2022/10/21 02:33:37;;;;;;;12.67;8.13;;;15.40;99.90;;;;;;5053953;28;20232;-60
2022/10/21 02:36:13;;;;;;;12.73;8.13;;;15.30;99.90;;;;;;5053221;28;20612;-60
2022/10/21 02:38:43;;;;;;;22.80;8.07;;;15.20;99.90;;;;;;5053186;28;20205;-58
2022/10/21 02:41:17;;;;;;;12.73;7.73;;;14.90;99.90;;;;;;5053047;28;20212;-59
2022/10/21 02:43:48;;;;;;;12.17;8.00;;;14.70;99.90;;;;;;5052811;28;20320;-61
2022/10/21 02:46:15;;;;;;;11.10;7.30;;;14.50;99.90;;;;;;5052983;28;20209;-59
2022/10/21 02:48:46;;;;;;;18.43;8.30;;;14.50;99.90;;;;;;5051903;28;20201;-58
2022/10/21 02:51:14;;;;;;;13.73;8.80;;;14.60;99.90;;;;;;5052777;28;20742;-58
2022/10/21 02:53:41;;;;;;;12.77;7.37;;;14.80;99.90;;;;;;5053003;28;20236;-58
2022/10/21 02:56:08;;;;;;;9.23;6.67;;;15.00;99.90;;;;;;5052682;28;20206;-58
2022/10/21 02:58:35;;;;;;;20.60;7.33;;;15.20;99.90;;;;;;5052241;28;20210;-59
2022/10/21 03:01:03;;;;;;;15.73;7.00;;;15.20;99.90;;;;;;5052427;28;20197;-58
2022/10/21 03:03:30;;;;;;;13.97;6.77;;;15.20;99.90;;;;;;5052839;28;20230;-58
2022/10/21 03:05:58;;;;;;;13.10;6.43;;;15.10;99.90;;;;;;5052193;28;20202;-58
2022/10/21 03:08:25;;;;;;;12.70;6.70;;;15.00;99.90;;;;;;5052075;28;20417;-61
2022/10/21 03:10:52;;;;;;;15.93;7.30;;;14.90;99.90;;;;;;5052698;28;20229;-59
2022/10/21 03:13:19;;;;;;;12.87;6.63;;;15.00;99.90;;;;;;5052087;28;20320;-60
2022/10/21 03:15:46;;;;;;;20.23;7.47;;;15.10;99.90;;;;;;5052336;28;20213;-59
2022/10/21 03:18:12;;;;;;;11.97;6.87;;;15.10;99.90;;;;;;5052157;28;20210;-59
2022/10/21 03:20:39;;;;;;;13.13;7.63;;;15.10;99.90;;;;;;5052104;28;20214;-61
2022/10/21 03:23:08;;;;;;;15.30;7.37;;;15.00;99.90;;;;;;5052247;28;20221;-58
2022/10/21 03:25:35;;;;;;;14.00;7.37;;;15.00;99.90;;;;;;5052380;28;20237;-58
2022/10/21 03:28:01;;;;;;;15.40;7.37;;;15.00;99.90;;;;;;5052015;28;20216;-59
2022/10/21 03:30:28;;;;;;;12.97;8.03;;;15.00;99.90;;;;;;5052755;28;20252;-59
2022/10/21 03:32:55;;;;;;;8.43;7.10;;;15.00;99.90;;;;;;5052721;28;20201;-59
2022/10/21 03:35:22;;;;;;;15.07;7.93;;;15.00;99.90;;;;;;5054946;28;20228;-59
2022/10/21 03:37:49;;;;;;;17.40;6.93;;;15.00;99.90;;;;;;5055634;28;20205;-60
2022/10/21 03:40:17;;;;;;;9.57;7.33;;;15.10;99.90;;;;;;5055883;28;20673;-58
2022/10/21 03:42:44;;;;;;;13.50;6.90;;;15.10;99.90;;;;;;5055797;28;20209;-60
2022/10/21 03:45:11;;;;;;;12.67;7.43;;;15.00;99.90;;;;;;5056082;28;20202;-58
2022/10/21 03:47:39;;;;;;;12.93;7.90;;;15.00;99.90;;;;;;5055722;28;20673;-58
2022/10/21 03:50:06;;;;;;;10.80;6.83;;;15.10;99.90;;;;;;5038468;28;20221;-59
2022/10/21 03:52:34;;;;;;;14.13;6.83;;;15.20;99.90;;;;;;5056025;28;20217;-59
2022/10/21 03:55:00;;;;;;;10.57;7.07;;;15.30;99.90;;;;;;5056100;28;20210;-59
2022/10/21 03:57:29;;;;;;;14.15;6.57;;;15.40;99.90;;;;;;5055263;28;20580;-59
2022/10/21 03:59:55;;;;;;;9.53;6.50;;;15.50;99.90;;;;;;5055681;28;20202;-59
2022/10/21 04:02:22;;;;;;;11.57;7.30;;;15.60;99.90;;;;;;5055533;28;20212;-60
2022/10/21 04:04:49;;;;;;;11.27;6.63;;;15.80;99.90;;;;;;5055094;28;20735;-59
2022/10/21 04:07:16;;;;;;;12.00;6.17;;;15.90;99.90;;;;;;5054701;28;20241;-59
2022/10/21 04:09:43;;;;;;;10.27;6.00;;;16.10;99.90;;;;;;5054753;28;20226;-58
2022/10/21 04:12:10;;;;;;;7.63;5.60;;;16.00;99.90;;;;;;5055131;28;20209;-58
2022/10/21 04:14:38;;;;;;;14.85;6.65;;;16.10;99.90;;;;;;5054983;28;20230;-58
2022/10/21 04:17:05;;;;;;;9.73;6.20;;;16.10;99.90;;;;;;5054843;28;20248;-58
2022/10/21 04:19:32;;;;;;;13.93;6.50;;;16.10;99.90;;;;;;5055049;28;20214;-58
2022/10/21 04:21:59;;;;;;;12.63;6.57;;;16.00;99.90;;;;;;5054976;28;20228;-59
2022/10/21 04:24:25;;;;;;;12.65;6.63;;;15.90;99.90;;;;;;5055054;28;20713;-58
2022/10/21 04:26:52;;;;;;;13.13;6.13;;;15.80;99.90;;;;;;5054497;28;20214;-59
2022/10/21 04:29:19;;;;;;;13.03;6.40;;;15.80;99.90;;;;;;5054967;28;20206;-59
2022/10/21 04:31:47;;;;;;;8.77;6.07;;;15.90;99.90;;;;;;5055271;28;20206;-58
2022/10/21 04:34:14;;;;;;;10.67;6.30;;;15.90;99.90;;;;;;5054920;28;20222;-59
2022/10/21 04:36:41;;;;;;;15.43;6.47;;;15.90;99.90;;;;;;5054239;28;20209;-60
2022/10/21 04:39:08;;;;;;;12.47;6.13;;;15.80;99.90;;;;;;5054502;28;20205;-58
2022/10/21 04:41:34;;;;;;;11.90;5.75;;;15.80;99.90;;;;;;5054629;28;20202;-58
2022/10/21 04:44:01;;;;;;;14.40;6.23;;;15.80;99.90;;;;;;5054293;28;20238;-59
2022/10/21 04:46:28;;;;;;;10.33;6.10;;;15.90;99.90;;;;;;5054455;28;20212;-59
2022/10/21 04:48:57;;;;;;;11.75;6.70;;;15.90;99.90;;;;;;5053912;28;20206;-60
2022/10/21 04:51:24;;;;;;;10.03;6.17;;;16.00;99.90;;;;;;5054164;28;20283;-59
2022/10/21 04:53:51;;;;;;;9.63;5.33;;;16.00;99.90;;;;;;5053989;28;20705;-58
2022/10/21 04:56:18;;;;;;;18.38;6.50;;;16.10;99.90;;;;;;5054173;28;20205;-61
2022/10/21 04:58:44;;;;;;;10.18;5.57;;;16.20;99.90;;;;;;5053740;28;20213;-59
2022/10/21 05:01:11;;;;;;;10.27;6.30;;;16.30;99.90;;;;;;5054114;28;20645;-58
2022/10/21 05:03:38;;;;;;;13.85;6.35;;;16.40;99.90;;;;;;5053902;28;20232;-59
2022/10/21 05:06:06;;;;;;;7.82;5.60;;;16.40;99.90;;;;;;5053670;28;20202;-59
2022/10/21 05:08:33;;;;;;;9.57;5.85;;;16.50;99.90;;;;;;5053673;28;20562;-58
2022/10/21 05:11:01;;;;;;;12.07;6.22;;;16.60;99.90;;;;;;5053893;28;20235;-60
2022/10/21 05:13:29;;;;;;;8.68;5.60;;;16.60;99.90;;;;;;5053579;28;20230;-60
2022/10/21 05:15:57;;;;;;;8.33;5.60;;;16.60;99.90;;;;;;5054119;28;20208;-58
2022/10/21 05:18:24;;;;;;;10.70;6.23;;;16.60;99.90;;;;;;5053343;28;20288;-59
2022/10/21 05:20:52;;;;;;;13.30;6.15;;;16.60;99.90;;;;;;5054511;28;20198;-59
2022/10/21 05:23:20;;;;;;;8.73;5.65;;;16.60;99.90;;;;;;5054116;28;20226;-60
2022/10/21 05:25:47;;;;;;;9.18;5.60;;;16.60;99.90;;;;;;5054450;28;20220;-59
2022/10/21 05:28:16;;;;;;;15.57;5.50;;;16.60;99.90;;;;;;5053639;28;20212;-59
2022/10/21 05:30:43;;;;;;;9.20;5.75;;;16.70;99.90;;;;;;5053640;28;20228;-60
2022/10/21 05:33:11;;;;;;;15.52;6.50;;;16.70;99.90;;;;;;5053598;28;20225;-60
2022/10/21 05:35:37;;;;;;;9.40;6.32;;;16.70;99.90;;;;;;5053621;28;20205;-59
2022/10/21 05:38:05;;;;;;;12.43;6.10;;;16.70;99.90;;;;;;5053177;28;20841;-58
2022/10/21 05:40:33;;;;;;;10.93;6.03;;;16.70;99.90;;;;;;5053757;28;20232;-58
2022/10/21 05:43:00;;;;;;;8.18;5.68;;;16.70;99.90;;;;;;5053090;28;20233;-59
2022/10/21 05:45:27;;;;;;;9.83;5.33;;;16.70;99.90;;;;;;5053411;28;20215;-61
2022/10/21 05:47:54;;;;;;;13.33;6.00;;;16.80;99.90;;;;;;5052946;28;20292;-58
2022/10/21 05:50:21;;;;;;;11.95;5.15;;;16.90;99.90;;;;;;5052977;28;20240;-59
2022/10/21 05:52:47;;;;;;;10.30;5.20;;;16.90;99.90;;;;;;5053070;28;20232;-59
2022/10/21 05:55:14;;;;;;;10.43;4.32;;;17.00;99.90;;;;;;5053854;28;20209;-59
2022/10/21 05:57:42;;;;;;;11.68;4.65;;;17.00;99.90;;;;;;5052921;28;20673;-60
2022/10/21 06:00:11;;;;;;;9.00;3.60;;;17.10;99.90;;;;;;5053779;28;20208;-60
2022/10/21 06:02:38;;;;;;;11.90;4.03;;;17.20;99.90;;;;;;5053562;28;20215;-59
2022/10/21 06:05:05;;;;;;;9.93;3.78;;;17.20;99.90;;;;;;5053506;28;20202;-59
2022/10/21 06:07:32;;;;;;;8.77;3.53;;;17.40;99.90;;;;;;5053399;28;20661;-59
2022/10/21 06:09:59;;;;;;;9.30;3.58;;;17.40;99.90;;;;;;5053490;28;20202;-59
2022/10/21 06:12:26;;;;;;;14.50;4.38;;;17.50;99.90;;;;;;5053697;28;20210;-60
2022/10/21 06:14:54;;;;;;;8.88;3.65;;;17.60;99.90;;;;;;5053489;28;20316;-60
2022/10/21 06:17:21;;;;;;;10.10;3.70;;;17.60;99.90;;;;;;5053186;28;20209;-60
2022/10/21 06:19:48;;;;;;;13.15;3.67;;;17.70;99.90;;;;;;5053579;28;20209;-60
2022/10/21 06:22:15;;;;;;;10.82;4.18;;;17.70;99.90;;;;;;5053950;28;20213;-60
2022/10/21 06:24:42;;;;;;;13.15;3.47;;;17.80;99.90;;;;;;5053523;28;20225;-61
2022/10/21 06:27:09;;;;;;;8.40;3.42;;;17.80;99.90;;;;;;5052704;28;20213;-60
2022/10/21 06:29:36;;;;;;;8.18;4.10;;;17.90;99.90;;;;;;5052953;28;20213;-61
2022/10/21 06:32:04;;;;;;;9.93;4.13;;;18.00;99.90;;;;;;5052829;28;20231;-58
2022/10/21 06:34:31;;;;;;;11.73;4.13;;;18.00;99.90;;;;;;5052786;28;20412;-60
2022/10/21 06:36:58;;;;;;;12.43;3.83;;;18.00;99.90;;;;;;5052397;28;20206;-62
2022/10/21 06:39:25;;;;;;;10.02;3.80;;;18.00;99.90;;;;;;5052966;28;20205;-60
2022/10/21 06:41:52;;;;;;;11.57;4.30;;;18.00;99.90;;;;;;5052898;28;20208;-58
2022/10/21 06:44:18;;;;;;;11.20;3.83;;;18.00;99.90;;;;;;5052338;28;20265;-58
2022/10/21 06:46:45;;;;;;;10.60;4.10;;;18.00;99.90;;;;;;5052849;28;20209;-59
2022/10/21 06:49:14;;;;;;;14.23;4.07;;;18.00;99.90;;;;;;5052487;28;20209;-60
2022/10/21 06:51:41;;;;;;;15.35;9.50;;;18.00;99.90;;;;;;5052961;28;20248;-60
2022/10/21 06:54:08;;;;;;;29.67;20.90;;;18.00;99.90;;;;;;5052780;28;20757;-58
2022/10/21 06:56:34;;;;;;;129.50;89.80;;;18.00;99.90;;;;;;5052754;28;20231;-61
2022/10/21 06:59:01;;;;;;;99.80;66.82;;;18.10;99.90;;;;;;5042374;28;20297;-59
2022/10/21 07:01:31;;;;;;;33.17;22.05;;;18.00;99.90;;;;;;5033485;28;20304;-58
2022/10/21 07:03:58;;;;;;;23.63;13.13;;;18.10;99.90;;;;;;5050501;28;20283;-58
2022/10/21 07:06:26;;;;;;;15.60;8.80;;;18.20;99.90;;;;;;5050417;28;20220;-58
2022/10/21 07:08:53;;;;;;;11.85;5.10;;;18.20;99.90;;;;;;5051635;28;20206;-58
2022/10/21 07:11:20;;;;;;;13.20;4.97;;;18.20;99.90;;;;;;5054371;28;20308;-58
2022/10/21 07:13:47;;;;;;;11.13;4.28;;;18.20;99.90;;;;;;5054393;28;20225;-59
2022/10/21 07:16:19;;;;;;;12.75;4.57;;;18.20;99.90;;;;;;5054057;28;20210;-59
2022/10/21 07:18:45;;;;;;;11.02;3.97;;;18.20;99.90;;;;;;5053996;28;20215;-58
2022/10/21 07:21:15;;;;;;;8.95;3.30;;;18.30;99.90;;;;;;5054876;28;20216;-58
2022/10/21 07:23:44;;;;;;;11.88;4.10;;;18.30;99.90;;;;;;5054053;28;20287;-58
2022/10/21 07:26:11;;;;;;;10.30;4.78;;;18.30;99.90;;;;;;5054345;28;20665;-58
2022/10/21 07:28:39;;;;;;;9.27;3.70;;;18.30;99.90;;;;;;5053113;28;20214;-59
2022/10/21 07:31:06;;;;;;;7.65;3.45;;;18.30;99.90;;;;;;5054285;28;20451;-59
2022/10/21 07:33:34;;;;;;;9.38;3.85;;;18.20;99.90;;;;;;5054081;28;20713;-57
2022/10/21 07:36:07;;;;;;;8.55;3.33;;;18.20;99.90;;;;;;5054146;28;20212;-57
2022/10/21 07:38:34;;;;;;;11.55;3.95;;;18.20;99.90;;;;;;5053791;28;20209;-65
2022/10/21 07:41:03;;;;;;;10.18;4.28;;;18.30;99.90;;;;;;5054938;28;20201;-59
2022/10/21 07:43:30;;;;;;;21.05;4.63;;;18.20;99.90;;;;;;5074386;22;20581;-64
2022/10/21 07:45:58;;;;;;;9.82;3.95;;;18.10;99.90;;;;;;5045179;28;20193;-65
2022/10/21 07:48:25;;;;;;;14.00;3.90;;;18.10;99.90;;;;;;5052637;28;20232;-65
2022/10/21 07:50:52;;;;;;;12.50;3.85;;;18.10;99.90;;;;;;5053283;28;20233;-68
2022/10/21 07:53:20;;;;;;;8.27;3.85;;;18.10;99.90;;;;;;5053302;28;20271;-66
2022/10/21 07:55:47;;;;;;;8.65;3.40;;;18.20;99.90;;;;;;5053531;28;20216;-63
2022/10/21 07:58:15;;;;;;;8.38;3.65;;;18.30;99.90;;;;;;5052217;28;20209;-66
2022/10/21 08:00:45;;;;;;;10.05;3.40;;;18.40;99.90;;;;;;5053683;28;20221;-67
2022/10/21 08:03:12;;;;;;;7.75;3.80;;;18.30;99.90;;;;;;5052820;28;20220;-65
2022/10/21 08:05:41;;;;;;;9.40;3.22;;;18.30;99.90;;;;;;5053090;28;20575;-65
2022/10/21 08:08:08;;;;;;;8.18;3.97;;;18.30;99.90;;;;;;5051973;28;20757;-64
2022/10/21 08:10:39;;;;;;;13.90;3.97;;;18.30;99.90;;;;;;5052872;28;20209;-65
2022/10/21 08:13:06;;;;;;;7.47;3.38;;;18.20;99.90;;;;;;5052622;28;20202;-63
2022/10/21 08:15:34;;;;;;;9.70;3.67;;;18.10;99.90;;;;;;5052810;28;20205;-62
2022/10/21 08:18:00;;;;;;;7.88;3.97;;;18.00;99.90;;;;;;5051827;28;20221;-63
2022/10/21 08:20:27;;;;;;;8.90;3.70;;;17.90;99.90;;;;;;5052229;28;20213;-65
2022/10/21 08:22:54;;;;;;;9.18;4.50;;;17.90;99.90;;;;;;5052850;28;20206;-63
2022/10/21 08:25:20;;;;;;;9.68;4.75;;;17.80;99.90;;;;;;5053138;28;20221;-62
2022/10/21 08:27:47;;;;;;;11.25;4.60;;;17.70;99.90;;;;;;5051939;28;20232;-62
2022/10/21 08:30:14;;;;;;;9.85;3.50;;;17.70;99.90;;;;;;5052238;28;20246;-62
2022/10/21 08:32:42;;;;;;;9.35;2.85;;;17.70;99.90;;;;;;5052762;28;20225;-64
2022/10/21 08:35:09;;;;;;;6.38;2.85;;;17.90;99.90;;;;;;5052586;28;20237;-64
2022/10/21 08:37:36;;;;;;;7.22;2.83;;;17.90;99.90;;;;;;5051703;28;20213;-63
2022/10/21 08:40:03;;;;;;;6.03;2.85;;;18.00;99.90;;;;;;5052655;28;20213;-63
2022/10/21 08:42:29;;;;;;;10.32;3.17;;;18.20;99.90;;;;;;5052034;28;20300;-65
2022/10/21 08:45:00;;;;;;;8.88;3.03;;;18.30;99.90;;;;;;5051952;28;20245;-63
2022/10/21 08:47:35;;;;;;;11.73;3.17;;;18.40;99.90;;;;;;5051602;28;20201;-64
2022/10/21 08:50:06;;;;;;;8.40;3.40;;;18.50;99.90;;;;;;5052452;28;20247;-65
2022/10/21 08:52:40;;;;;;;8.13;3.10;;;18.60;99.90;;;;;;5052137;28;20696;-63
2022/10/21 08:55:15;;;;;;;7.70;3.97;;;18.60;99.90;;;;;;5051531;28;20251;-63
2022/10/21 08:57:42;;;;;;;7.40;3.55;;;18.60;99.90;;;;;;5051889;28;20209;-64
2022/10/21 09:00:16;;;;;;;8.85;4.63;;;18.60;99.90;;;;;;5052259;28;20210;-63
2022/10/21 09:03:00;;;;;;;9.18;4.20;;;18.60;99.90;;;;;;5052315;28;20202;-63
2022/10/21 09:05:43;;;;;;;12.05;4.25;;;18.60;99.90;;;;;;5051942;28;20210;-62
2022/10/21 09:08:23;;;;;;;7.40;3.35;;;18.40;99.90;;;;;;5050264;28;20561;-61
2022/10/21 09:11:03;;;;;;;9.18;3.58;;;18.40;99.90;;;;;;5051603;28;20217;-61
2022/10/21 09:13:55;;;;;;;8.38;3.10;;;18.40;99.90;;;;;;5051562;28;20758;-62
2022/10/21 09:16:30;;;;;;;8.98;3.63;;;18.50;99.90;;;;;;5051294;28;20209;-62
2022/10/21 09:19:10;;;;;;;9.70;4.68;;;18.60;99.90;;;;;;5051035;28;20205;-62
2022/10/21 09:21:53;;;;;;;9.80;4.00;;;18.70;99.90;;;;;;5051837;28;20198;-62
2022/10/21 09:24:29;;;;;;;8.90;3.70;;;18.80;99.90;;;;;;5051186;28;20229;-62
2022/10/21 09:26:57;;;;;;;10.38;3.50;;;18.80;99.90;;;;;;5052658;28;20205;-64
2022/10/21 09:29:31;;;;;;;10.38;3.85;;;18.70;99.90;;;;;;5052304;28;20564;-62
2022/10/21 09:32:08;;;;;;;12.57;4.40;;;18.70;99.90;;;;;;5051131;28;20221;-62
2022/10/21 09:34:49;;;;;;;8.55;3.65;;;18.60;99.90;;;;;;5052338;28;20229;-64
2022/10/21 09:37:24;;;;;;;9.25;4.18;;;18.70;99.90;;;;;;5051601;28;20216;-63
2022/10/21 09:39:59;;;;;;;9.05;3.75;;;18.70;99.90;;;;;;5052906;28;20205;-63
2022/10/21 09:42:26;;;;;;;7.85;3.13;;;18.80;99.90;;;;;;5053129;28;20208;-63
2022/10/21 09:44:53;;;;;;;9.65;3.15;;;18.80;99.90;;;;;;5051962;28;20245;-63
2022/10/21 09:47:22;;;;;;;8.88;3.13;;;18.90;99.90;;;;;;5051016;28;20206;-63
2022/10/21 09:49:51;;;;;;;8.05;3.40;;;19.00;99.90;;;;;;5052763;28;20210;-63
2022/10/21 09:52:21;;;;;;;7.05;3.35;;;19.30;99.90;;;;;;5052116;28;20229;-63
2022/10/21 09:54:48;;;;;;;10.30;6.03;;;19.50;99.90;;;;;;5051614;28;20229;-63
2022/10/21 09:57:23;;;;;;;7.05;3.20;;;19.70;99.90;;;;;;5050758;28;20209;-63
2022/10/21 09:59:54;;;;;;;4.88;2.70;;;19.80;99.90;;;;;;5050632;28;20649;-63
2022/10/21 10:02:27;;;;;;;6.55;2.60;;;19.80;99.90;;;;;;5051287;28;20209;-63
2022/10/21 10:04:54;;;;;;;8.00;2.90;;;19.80;99.90;;;;;;5050728;28;20229;-63
2022/10/21 10:07:30;;;;;;;8.35;3.45;;;19.80;99.90;;;;;;5048934;28;20856;-62
2022/10/21 10:09:57;;;;;;;10.82;3.03;;;19.80;99.90;;;;;;5050784;28;20205;-63
2022/10/21 10:12:25;;;;;;;8.25;3.17;;;19.70;99.90;;;;;;5050311;28;20597;-63
2022/10/21 10:14:54;;;;;;;12.13;3.60;;;19.80;99.90;;;;;;5050847;28;20232;-64
2022/10/21 10:17:27;;;;;;;6.20;3.35;;;19.80;99.90;;;;;;5050044;28;20305;-63
2022/10/21 10:20:13;;;;;;;8.35;3.28;;;20.00;99.90;;;;;;5050579;28;20209;-62
2022/10/21 10:22:42;;;;;;;7.90;3.58;;;20.10;99.90;;;;;;5050579;28;20455;-63
2022/10/21 10:25:20;;;;;;;6.35;2.92;;;20.20;99.90;;;;;;5050500;28;20229;-63
2022/10/21 10:27:48;;;;;;;7.70;3.20;;;20.20;99.90;;;;;;5049816;28;20213;-63
2022/10/21 10:30:15;;;;;;;8.18;4.25;;;20.10;99.90;;;;;;5050530;28;20210;-62
2022/10/21 10:32:43;;;;;;;8.13;3.35;;;19.90;99.90;;;;;;5050258;28;20221;-63
2022/10/21 10:35:22;;;;;;;10.20;4.28;;;20.00;99.90;;;;;;5050052;28;20233;-62
2022/10/21 10:37:51;;;;;;;7.53;3.53;;;20.20;99.90;;;;;;5049640;28;20206;-63
2022/10/21 10:40:22;;;;;;;7.45;5.25;;;20.30;99.90;;;;;;5050989;28;20212;-64
2022/10/21 10:42:52;;;;;;;9.77;3.80;;;20.50;99.90;;;;;;5050657;28;20214;-64
2022/10/21 10:45:21;;;;;;;12.75;4.65;;;20.50;99.90;;;;;;5054120;28;20237;-65
2022/10/21 10:47:53;;;;;;;18.92;9.20;;;20.60;99.90;;;;;;5053289;28;20296;-63
2022/10/21 10:50:43;;;;;;;11.80;5.63;;;20.70;99.90;;;;;;5054766;28;20201;-65
2022/10/21 10:53:26;;;;;;;9.93;4.22;;;20.70;99.90;;;;;;5054391;28;20230;-64
2022/10/21 10:55:59;;;;;;;6.90;3.80;;;20.60;99.90;;;;;;5054450;28;20736;-64
2022/10/21 10:58:28;;;;;;;9.15;4.10;;;20.60;99.90;;;;;;5053408;28;20218;-64
2022/10/21 11:00:59;;;;;;;7.65;3.92;;;20.60;99.90;;;;;;5054357;28;20232;-64
2022/10/21 11:03:32;;;;;;;7.00;4.03;;;20.60;99.90;;;;;;5054374;28;20229;-66
2022/10/21 11:06:06;;;;;;;7.28;3.75;;;20.50;99.90;;;;;;5054070;28;20681;-64
2022/10/21 11:08:39;;;;;;;9.90;3.45;;;20.60;99.90;;;;;;5052593;28;20201;-64
2022/10/21 11:11:11;;;;;;;18.35;3.42;;;20.60;99.90;;;;;;5054324;28;20566;-64
2022/10/21 11:13:39;;;;;;;8.07;3.33;;;20.70;99.90;;;;;;5054090;28;20237;-63
2022/10/21 11:16:18;;;;;;;12.70;3.30;;;20.70;99.90;;;;;;5054103;28;20210;-64
2022/10/21 11:18:50;;;;;;;13.48;3.03;;;20.90;99.90;;;;;;5053067;28;20205;-66
2022/10/21 11:21:33;;;;;;;17.35;3.15;;;21.00;99.90;;;;;;5053663;28;20198;-64
2022/10/21 11:24:14;;;;;;;19.80;3.20;;;21.10;99.90;;;;;;5053936;28;20709;-64
2022/10/21 11:26:49;;;;;;;7.05;2.70;;;21.20;99.90;;;;;;5054226;28;20237;-66
2022/10/21 11:29:32;;;;;;;5.97;2.38;;;21.20;99.90;;;;;;5053529;28;20256;-69
2022/10/21 11:32:05;;;;;;;3.55;2.15;;;21.20;99.90;;;;;;5055160;28;20225;-64
2022/10/21 11:34:37;;;;;;;10.85;2.42;;;21.30;99.90;;;;;;5054899;28;20229;-64
2022/10/21 11:37:08;;;;;;;10.13;2.40;;;21.50;99.90;;;;;;5054912;28;20210;-64
2022/10/21 11:39:43;;;;;;;26.30;3.20;;;21.70;99.90;;;;;;5054323;28;20319;-64
2022/10/21 11:42:19;;;;;;;23.08;3.30;;;22.00;99.90;;;;;;5054946;28;20220;-64
2022/10/21 11:45:01;;;;;;;8.25;2.50;;;22.10;99.90;;;;;;5054635;28;20233;-63
2022/10/21 11:47:36;;;;;;;10.27;2.47;;;22.20;99.90;;;;;;5055197;28;20218;-63
2022/10/21 11:50:14;;;;;;;11.55;2.10;;;22.30;99.90;;;;;;5055492;28;20209;-63
2022/10/21 11:52:56;;;;;;;24.20;3.00;;;22.40;99.90;;;;;;5055943;28;20229;-62
2022/10/21 11:55:38;;;;;;;14.27;2.53;;;22.50;99.90;;;;;;5053997;28;20239;-62
2022/10/21 11:58:16;;;;;;;12.48;2.63;;;22.50;99.90;;;;;;5054181;28;20585;-62
2022/10/21 12:00:50;;;;;;;23.08;3.45;;;22.50;99.90;;;;;;5055283;28;20201;-63
2022/10/21 12:03:40;;;;;;;74.60;5.22;;;22.60;99.90;;;;;;5057200;28;20693;-63
2022/10/21 12:06:19;;;;;;;10.57;2.38;;;22.70;99.90;;;;;;5056793;28;20221;-65
2022/10/21 12:08:52;;;;;;;7.28;2.08;;;22.70;99.90;;;;;;5054684;28;20209;-62
2022/10/21 12:11:23;;;;;;;19.90;2.70;;;22.80;99.90;;;;;;5054601;28;20214;-64
2022/10/21 12:13:54;;;;;;;58.95;5.35;;;22.90;99.90;;;;;;5054667;28;20229;-62
2022/10/21 12:16:27;;;;;;;29.67;2.75;;;22.90;99.90;;;;;;5054520;28;20197;-62
2022/10/21 12:18:57;;;;;;;7.75;2.10;;;23.00;99.90;;;;;;5053690;28;20205;-62
2022/10/21 12:21:26;;;;;;;22.25;3.08;;;23.00;99.90;;;;;;5054108;28;20216;-63
2022/10/21 12:23:58;;;;;;;61.58;4.63;;;23.00;99.90;;;;;;5054113;28;20697;-62
2022/10/21 12:26:30;;;;;;;17.92;2.47;;;22.90;99.90;;;;;;5054047;28;20216;-62
2022/10/21 12:29:02;;;;;;;10.70;2.10;;;22.70;99.90;;;;;;5053269;28;20712;-62
2022/10/21 12:31:38;;;;;;;7.55;2.08;;;22.60;99.90;;;;;;5053751;28;20693;-61
2022/10/21 12:34:09;;;;;;;2.30;1.58;;;22.30;99.90;;;;;;5053651;28;20642;-62
2022/10/21 12:36:45;;;;;;;4.57;2.00;;;22.10;99.90;;;;;;5053776;28;20209;-64
2022/10/21 12:39:17;;;;;;;70.70;5.55;;;22.10;99.90;;;;;;5052888;28;20790;-63
2022/10/21 12:41:47;;;;;;;113.95;7.57;;;22.00;99.90;;;;;;5054305;28;20209;-62
2022/10/21 12:44:25;;;;;;;25.42;2.75;;;22.00;99.90;;;;;;5053375;28;20295;-63
2022/10/21 12:46:54;;;;;;;10.48;2.67;;;21.90;99.90;;;;;;5053751;28;20212;-62
2022/10/21 12:49:25;;;;;;;15.18;4.10;;;21.90;99.90;;;;;;5053162;28;20209;-62
2022/10/21 12:51:55;;;;;;;82.45;5.57;;;21.90;99.90;;;;;;5054025;28;20212;-62
2022/10/21 12:54:25;;;;;;;43.70;4.13;;;21.90;99.90;;;;;;5053569;28;20229;-62
2022/10/21 12:57:00;;;;;;;29.50;3.10;;;22.00;99.90;;;;;;5053165;28;20483;-62